createdAt,value
2022-09-06T00:00:06.147Z,18.01
2022-09-06T00:00:16.165Z,17.99
2022-09-06T00:00:26.200Z,18.01
2022-09-06T00:00:36.262Z,18.02
2022-09-06T00:00:46.350Z,18.01
2022-09-06T00:00:56.410Z,17.99
2022-09-06T00:01:06.471Z,18.01
2022-09-06T00:01:16.558Z,17.99
2022-09-06T00:01:26.611Z,18.01
2022-09-06T00:01:36.671Z,18.01
2022-09-06T00:01:46.740Z,18.02
2022-09-06T00:01:56.803Z,18.01
2022-09-06T00:02:06.872Z,18.02
2022-09-06T00:02:16.953Z,18.01
2022-09-06T00:02:27.141Z,18.01
2022-09-06T00:02:37.224Z,18.02
2022-09-06T00:02:47.414Z,17.99
2022-09-06T00:02:57.393Z,17.99
2022-09-06T00:03:07.493Z,17.99
2022-09-06T00:03:17.589Z,18.01
2022-09-06T00:03:27.661Z,17.98
2022-09-06T00:03:37.767Z,17.99
2022-09-06T00:03:47.904Z,17.98
2022-09-06T00:03:57.996Z,17.96
2022-09-06T00:04:11.790Z,17.96
2022-09-06T00:04:19.037Z,17.95
2022-09-06T00:04:29.144Z,17.98
2022-09-06T00:04:39.202Z,17.96
2022-09-06T00:04:49.267Z,17.96
2022-09-06T00:04:59.350Z,17.96
2022-09-06T00:05:09.411Z,17.98
2022-09-06T00:05:19.500Z,17.98
2022-09-06T00:05:29.560Z,17.96
2022-09-06T00:05:39.630Z,17.98
2022-09-06T00:05:49.680Z,17.96
2022-09-06T00:05:59.750Z,17.96
2022-09-06T00:06:09.809Z,17.95
2022-09-06T00:06:19.889Z,17.96
2022-09-06T00:06:29.948Z,17.96
2022-09-06T00:06:40.009Z,17.96
2022-09-06T00:06:50.078Z,17.96
2022-09-06T00:07:00.139Z,17.99
2022-09-06T00:07:10.201Z,17.96
2022-09-06T00:07:20.270Z,17.98
2022-09-06T00:07:30.339Z,17.98
2022-09-06T00:07:40.400Z,17.96
2022-09-06T00:07:50.460Z,17.96
2022-09-06T00:08:00.544Z,17.94
2022-09-06T00:08:10.608Z,17.95
2022-09-06T00:08:20.716Z,17.95
2022-09-06T00:08:30.781Z,17.94
2022-09-06T00:08:40.848Z,17.94
2022-09-06T00:08:50.929Z,17.94
2022-09-06T00:09:01.018Z,17.94
2022-09-06T00:09:11.089Z,17.91
2022-09-06T00:09:21.141Z,17.92
2022-09-06T00:09:31.211Z,17.92
2022-09-06T00:09:41.280Z,17.92
2022-09-06T00:09:51.351Z,17.92
2022-09-06T00:10:01.411Z,17.92
2022-09-06T00:10:11.482Z,17.92
2022-09-06T00:10:21.531Z,17.91
2022-09-06T00:10:31.590Z,17.91
2022-09-06T00:10:41.649Z,17.92
2022-09-06T00:10:51.711Z,17.91
2022-09-06T00:11:01.770Z,17.92
2022-09-06T00:11:11.811Z,17.92
2022-09-06T00:11:21.851Z,17.91
2022-09-06T00:11:31.908Z,17.89
2022-09-06T00:11:41.949Z,17.89
2022-09-06T00:11:51.993Z,17.91
2022-09-06T00:12:02.028Z,17.92
2022-09-06T00:12:12.079Z,17.91
2022-09-06T00:12:22.121Z,17.91
2022-09-06T00:12:32.178Z,17.91
2022-09-06T00:12:42.231Z,17.92
2022-09-06T00:12:52.298Z,17.92
2022-09-06T00:13:02.343Z,17.92
2022-09-06T00:13:12.391Z,17.91
2022-09-06T00:13:22.441Z,17.91
2022-09-06T00:13:32.501Z,17.89
2022-09-06T00:13:42.568Z,17.89
2022-09-06T00:13:52.631Z,17.89
2022-09-06T00:14:02.730Z,17.92
2022-09-06T00:14:12.841Z,17.91
2022-09-06T00:14:23.001Z,17.89
2022-09-06T00:14:33.128Z,17.89
2022-09-06T00:14:43.179Z,17.87
2022-09-06T00:14:53.250Z,17.89
2022-09-06T00:15:03.353Z,17.91
2022-09-06T00:15:13.448Z,17.89
2022-09-06T00:15:23.560Z,17.89
2022-09-06T00:15:33.678Z,17.91
2022-09-06T00:15:43.802Z,17.89
2022-09-06T00:15:53.885Z,17.89
2022-09-06T00:16:03.988Z,17.89
2022-09-06T00:16:14.130Z,17.89
2022-09-06T00:16:28.386Z,17.86
2022-09-06T00:16:35.020Z,17.86
2022-09-06T00:16:45.087Z,17.87
2022-09-06T00:16:55.151Z,17.91
2022-09-06T00:17:05.210Z,17.87
2022-09-06T00:17:15.279Z,17.87
2022-09-06T00:17:25.340Z,17.87
2022-09-06T00:17:35.398Z,17.89
2022-09-06T00:17:45.460Z,17.87
2022-09-06T00:17:55.520Z,17.87
2022-09-06T00:18:05.591Z,17.84
2022-09-06T00:18:15.660Z,17.86
2022-09-06T00:18:25.730Z,17.86
2022-09-06T00:18:35.791Z,17.86
2022-09-06T00:18:45.862Z,17.84
2022-09-06T00:18:55.920Z,17.83
2022-09-06T00:19:05.999Z,17.84
2022-09-06T00:19:16.081Z,17.84
2022-09-06T00:19:26.151Z,17.83
2022-09-06T00:19:36.220Z,17.84
2022-09-06T00:19:46.270Z,17.86
2022-09-06T00:19:56.351Z,17.84
2022-09-06T00:20:06.414Z,17.80
2022-09-06T00:20:16.471Z,17.84
2022-09-06T00:20:26.532Z,17.83
2022-09-06T00:20:36.601Z,17.83
2022-09-06T00:20:46.659Z,17.81
2022-09-06T00:20:56.728Z,17.81
2022-09-06T00:21:06.792Z,17.80
2022-09-06T00:21:16.861Z,17.81
2022-09-06T00:21:26.920Z,17.80
2022-09-06T00:21:36.998Z,17.81
2022-09-06T00:21:47.061Z,17.80
2022-09-06T00:21:57.119Z,17.81
2022-09-06T00:22:07.188Z,17.76
2022-09-06T00:22:17.240Z,17.80
2022-09-06T00:22:27.300Z,17.80
2022-09-06T00:22:37.370Z,17.79
2022-09-06T00:22:47.434Z,17.80
2022-09-06T00:22:57.481Z,17.77
2022-09-06T00:23:07.551Z,17.77
2022-09-06T00:23:17.601Z,17.79
2022-09-06T00:23:27.650Z,17.79
2022-09-06T00:23:37.692Z,17.77
2022-09-06T00:23:47.748Z,17.77
2022-09-06T00:23:57.784Z,17.77
2022-09-06T00:24:07.820Z,17.76
2022-09-06T00:24:17.872Z,17.74
2022-09-06T00:24:27.927Z,17.74
2022-09-06T00:24:37.984Z,17.76
2022-09-06T00:24:48.023Z,17.74
2022-09-06T00:24:58.070Z,17.77
2022-09-06T00:25:08.123Z,17.76
2022-09-06T00:25:18.160Z,17.74
2022-09-06T00:25:28.200Z,17.74
2022-09-06T00:25:38.257Z,17.74
2022-09-06T00:25:48.311Z,17.74
2022-09-06T00:25:58.362Z,17.76
2022-09-06T00:26:08.458Z,17.76
2022-09-06T00:26:18.491Z,17.76
2022-09-06T00:26:28.542Z,17.79
2022-09-06T00:26:38.591Z,17.73
2022-09-06T00:26:48.641Z,17.76
2022-09-06T00:26:58.682Z,17.76
2022-09-06T00:27:08.731Z,17.74
2022-09-06T00:27:18.781Z,17.74
2022-09-06T00:27:28.830Z,17.77
2022-09-06T00:27:38.882Z,17.74
2022-09-06T00:27:48.951Z,17.74
2022-09-06T00:27:59.000Z,17.74
2022-09-06T00:28:09.050Z,17.74
2022-09-06T00:28:19.080Z,17.73
2022-09-06T00:28:29.130Z,17.71
2022-09-06T00:28:39.168Z,17.73
2022-09-06T00:28:49.221Z,17.71
2022-09-06T00:28:59.307Z,17.73
2022-09-06T00:29:09.377Z,17.70
2022-09-06T00:29:19.442Z,17.71
2022-09-06T00:29:29.510Z,17.70
2022-09-06T00:29:39.600Z,17.70
2022-09-06T00:29:49.661Z,17.68
2022-09-06T00:29:59.728Z,17.70
2022-09-06T00:30:09.790Z,17.71
2022-09-06T00:30:19.850Z,17.70
2022-09-06T00:30:29.920Z,17.68
2022-09-06T00:30:40.046Z,17.70
2022-09-06T00:30:50.203Z,17.68
2022-09-06T00:31:00.314Z,17.68
2022-09-06T00:31:10.431Z,17.68
2022-09-06T00:31:20.429Z,17.66
2022-09-06T00:31:30.581Z,17.66
2022-09-06T00:31:40.640Z,17.66
2022-09-06T00:31:50.702Z,17.66
2022-09-06T00:32:00.772Z,17.68
2022-09-06T00:32:10.830Z,17.65
2022-09-06T00:32:20.908Z,17.66
2022-09-06T00:32:30.967Z,17.65
2022-09-06T00:32:41.039Z,17.66
2022-09-06T00:32:51.102Z,17.66
2022-09-06T00:33:01.160Z,17.65
2022-09-06T00:33:11.232Z,17.65
2022-09-06T00:33:21.311Z,17.65
2022-09-06T00:33:31.371Z,17.65
2022-09-06T00:33:41.442Z,17.62
2022-09-06T00:33:51.490Z,17.62
2022-09-06T00:34:01.561Z,17.65
2022-09-06T00:34:11.621Z,17.62
2022-09-06T00:34:21.691Z,17.62
2022-09-06T00:34:31.810Z,17.63
2022-09-06T00:34:41.889Z,17.62
2022-09-06T00:34:51.953Z,17.63
2022-09-06T00:35:02.022Z,17.62
2022-09-06T00:35:12.090Z,17.60
2022-09-06T00:35:22.150Z,17.62
2022-09-06T00:35:32.218Z,17.62
2022-09-06T00:35:42.282Z,17.62
2022-09-06T00:35:52.369Z,17.65
2022-09-06T00:36:02.431Z,17.62
2022-09-06T00:36:12.509Z,17.63
2022-09-06T00:36:22.570Z,17.62
2022-09-06T00:36:32.630Z,17.63
2022-09-06T00:36:42.692Z,17.60
2022-09-06T00:36:52.766Z,17.62
2022-09-06T00:37:02.819Z,17.63
2022-09-06T00:37:12.879Z,17.62
2022-09-06T00:37:22.921Z,17.62
2022-09-06T00:37:32.980Z,17.60
2022-09-06T00:37:43.041Z,17.60
2022-09-06T00:37:53.118Z,17.62
2022-09-06T00:38:03.175Z,17.58
2022-09-06T00:38:13.250Z,17.60
2022-09-06T00:38:23.355Z,17.60
2022-09-06T00:38:33.439Z,17.62
2022-09-06T00:38:43.500Z,17.58
2022-09-06T00:38:53.551Z,17.60
2022-09-06T00:39:03.625Z,17.60
2022-09-06T00:39:13.660Z,17.60
2022-09-06T00:39:23.790Z,17.62
2022-09-06T00:39:33.887Z,17.60
2022-09-06T00:39:44.019Z,17.58
2022-09-06T00:39:54.135Z,17.60
2022-09-06T00:40:04.091Z,17.60
2022-09-06T00:40:14.170Z,17.58
2022-09-06T00:40:24.240Z,17.58
2022-09-06T00:40:34.321Z,17.58
2022-09-06T00:40:44.401Z,17.58
2022-09-06T00:40:54.460Z,17.55
2022-09-06T00:41:04.539Z,17.58
2022-09-06T00:41:14.591Z,17.57
2022-09-06T00:41:24.667Z,17.55
2022-09-06T00:41:34.720Z,17.55
2022-09-06T00:41:44.780Z,17.55
2022-09-06T00:41:54.841Z,17.57
2022-09-06T00:42:04.909Z,17.55
2022-09-06T00:42:14.970Z,17.55
2022-09-06T00:42:25.019Z,17.57
2022-09-06T00:42:35.068Z,17.55
2022-09-06T00:42:45.130Z,17.54
2022-09-06T00:42:55.181Z,17.53
2022-09-06T00:43:05.230Z,17.53
2022-09-06T00:43:15.288Z,17.54
2022-09-06T00:43:25.339Z,17.54
2022-09-06T00:43:35.391Z,17.49
2022-09-06T00:43:45.432Z,17.51
2022-09-06T00:43:55.490Z,17.49
2022-09-06T00:44:05.547Z,17.47
2022-09-06T00:44:15.592Z,17.49
2022-09-06T00:44:25.630Z,17.49
2022-09-06T00:44:35.699Z,17.51
2022-09-06T00:44:45.749Z,17.51
2022-09-06T00:44:55.819Z,17.46
2022-09-06T00:45:05.868Z,17.49
2022-09-06T00:45:15.940Z,17.47
2022-09-06T00:45:25.990Z,17.49
2022-09-06T00:45:36.041Z,17.46
2022-09-06T00:45:46.091Z,17.45
2022-09-06T00:45:56.198Z,17.45
2022-09-06T00:46:06.315Z,17.46
2022-09-06T00:46:16.432Z,17.45
2022-09-06T00:46:26.599Z,17.45
2022-09-06T00:46:36.700Z,17.43
2022-09-06T00:46:46.788Z,17.45
2022-09-06T00:46:56.861Z,17.45
2022-09-06T00:47:06.930Z,17.45
2022-09-06T00:47:17.009Z,17.43
2022-09-06T00:47:27.078Z,17.42
2022-09-06T00:47:37.144Z,17.40
2022-09-06T00:47:47.201Z,17.42
2022-09-06T00:47:57.268Z,17.42
2022-09-06T00:48:07.330Z,17.43
2022-09-06T00:48:17.388Z,17.40
2022-09-06T00:48:27.596Z,17.40
2022-09-06T00:48:37.530Z,17.40
2022-09-06T00:48:47.594Z,17.40
2022-09-06T00:48:57.640Z,17.40
2022-09-06T00:49:07.704Z,17.39
2022-09-06T00:49:17.763Z,17.40
2022-09-06T00:49:27.830Z,17.40
2022-09-06T00:49:37.890Z,17.38
2022-09-06T00:49:47.960Z,17.39
2022-09-06T00:49:58.010Z,17.39
2022-09-06T00:50:08.088Z,17.39
2022-09-06T00:50:18.169Z,17.39
2022-09-06T00:50:28.221Z,17.39
2022-09-06T00:50:38.273Z,17.40
2022-09-06T00:50:48.339Z,17.39
2022-09-06T00:50:58.402Z,17.38
2022-09-06T00:51:08.482Z,17.39
2022-09-06T00:51:18.522Z,17.39
2022-09-06T00:51:28.595Z,17.38
2022-09-06T00:51:38.649Z,17.40
2022-09-06T00:51:48.701Z,17.38
2022-09-06T00:51:58.758Z,17.39
2022-09-06T00:52:08.829Z,17.38
2022-09-06T00:52:18.879Z,17.39
2022-09-06T00:52:28.960Z,17.38
2022-09-06T00:52:39.031Z,17.38
2022-09-06T00:52:49.101Z,17.39
2022-09-06T00:52:59.160Z,17.40
2022-09-06T00:53:09.224Z,17.39
2022-09-06T00:53:19.278Z,17.39
2022-09-06T00:53:29.340Z,17.39
2022-09-06T00:53:39.398Z,17.39
2022-09-06T00:53:49.470Z,17.38
2022-09-06T00:53:59.550Z,17.39
2022-09-06T00:54:09.612Z,17.38
2022-09-06T00:54:19.680Z,17.39
2022-09-06T00:54:29.820Z,17.38
2022-09-06T00:54:39.869Z,17.38
2022-09-06T00:54:49.939Z,17.38
2022-09-06T00:54:59.992Z,17.39
2022-09-06T00:55:10.061Z,17.38
2022-09-06T00:55:20.131Z,17.38
2022-09-06T00:55:30.199Z,17.39
2022-09-06T00:55:40.260Z,17.38
2022-09-06T00:55:50.339Z,17.36
2022-09-06T00:56:00.420Z,17.36
2022-09-06T00:56:10.489Z,17.36
2022-09-06T00:56:20.532Z,17.35
2022-09-06T00:56:30.597Z,17.35
2022-09-06T00:56:40.680Z,17.35
2022-09-06T00:56:50.740Z,17.35
2022-09-06T00:57:00.799Z,17.33
2022-09-06T00:57:10.850Z,17.32
2022-09-06T00:57:20.917Z,17.33
2022-09-06T00:57:30.987Z,17.32
2022-09-06T00:57:41.053Z,17.33
2022-09-06T00:57:51.109Z,17.33
2022-09-06T00:58:01.209Z,17.32
2022-09-06T00:58:11.278Z,17.32
2022-09-06T00:58:21.340Z,17.32
2022-09-06T00:58:31.417Z,17.30
2022-09-06T00:58:41.490Z,17.30
2022-09-06T00:58:51.550Z,17.35
2022-09-06T00:59:01.620Z,17.32
2022-09-06T00:59:11.682Z,17.33
2022-09-06T00:59:21.741Z,17.32
2022-09-06T00:59:31.810Z,17.30
2022-09-06T00:59:41.878Z,17.32
2022-09-06T00:59:51.940Z,17.30
2022-09-06T01:00:02.010Z,17.28
2022-09-06T01:00:12.099Z,17.30
2022-09-06T01:00:22.170Z,17.30
2022-09-06T01:00:32.250Z,17.30
2022-09-06T01:00:42.330Z,17.30
2022-09-06T01:00:52.387Z,17.28
2022-09-06T01:01:02.448Z,17.28
2022-09-06T01:01:12.596Z,17.28
2022-09-06T01:01:22.654Z,17.30
2022-09-06T01:01:32.627Z,17.28
2022-09-06T01:01:42.636Z,17.28
2022-09-06T01:01:52.622Z,17.27
2022-09-06T01:02:02.682Z,17.25
2022-09-06T01:02:12.653Z,17.27
2022-09-06T01:02:22.637Z,17.25
2022-09-06T01:02:32.673Z,17.25
2022-09-06T01:02:42.690Z,17.27
2022-09-06T01:02:52.673Z,17.25
2022-09-06T01:03:02.739Z,17.25
2022-09-06T01:03:12.802Z,17.25
2022-09-06T01:03:22.880Z,17.25
2022-09-06T01:03:32.950Z,17.27
2022-09-06T01:03:43.013Z,17.27
2022-09-06T01:03:53.072Z,17.24
2022-09-06T01:04:03.139Z,17.27
2022-09-06T01:04:13.191Z,17.27
2022-09-06T01:04:23.265Z,17.25
2022-09-06T01:04:33.310Z,17.27
2022-09-06T01:04:43.380Z,17.22
2022-09-06T01:04:53.449Z,17.25
2022-09-06T01:05:03.520Z,17.24
2022-09-06T01:05:13.611Z,17.25
2022-09-06T01:05:23.690Z,17.25
2022-09-06T01:05:33.750Z,17.25
2022-09-06T01:05:43.828Z,17.24
2022-09-06T01:05:54.698Z,17.22
2022-09-06T01:06:04.120Z,17.25
2022-09-06T01:06:14.181Z,17.22
2022-09-06T01:06:24.250Z,17.25
2022-09-06T01:06:34.310Z,17.24
2022-09-06T01:06:44.378Z,17.22
2022-09-06T01:06:54.440Z,17.24
2022-09-06T01:07:04.500Z,17.22
2022-09-06T01:07:14.588Z,17.22
2022-09-06T01:07:24.650Z,17.22
2022-09-06T01:07:34.731Z,17.24
2022-09-06T01:07:44.800Z,17.24
2022-09-06T01:07:54.877Z,17.22
2022-09-06T01:08:04.922Z,17.21
2022-09-06T01:08:14.990Z,17.22
2022-09-06T01:08:25.115Z,17.21
2022-09-06T01:08:35.068Z,17.21
2022-09-06T01:08:45.129Z,17.22
2022-09-06T01:08:55.200Z,17.22
2022-09-06T01:09:05.268Z,17.21
2022-09-06T01:09:15.330Z,17.20
2022-09-06T01:09:25.390Z,17.22
2022-09-06T01:09:35.458Z,17.22
2022-09-06T01:09:45.531Z,17.22
2022-09-06T01:09:55.609Z,17.21
2022-09-06T01:10:05.660Z,17.21
2022-09-06T01:10:15.739Z,17.21
2022-09-06T01:10:25.811Z,17.21
2022-09-06T01:10:35.879Z,17.22
2022-09-06T01:10:45.941Z,17.22
2022-09-06T01:10:56.021Z,17.22
2022-09-06T01:11:06.077Z,17.22
2022-09-06T01:11:16.142Z,17.22
2022-09-06T01:11:26.190Z,17.24
2022-09-06T01:11:36.258Z,17.22
2022-09-06T01:11:46.321Z,17.24
2022-09-06T01:11:56.401Z,17.24
2022-09-06T01:12:06.464Z,17.22
2022-09-06T01:12:16.520Z,17.24
2022-09-06T01:12:26.587Z,17.24
2022-09-06T01:12:36.649Z,17.22
2022-09-06T01:12:46.700Z,17.22
2022-09-06T01:12:56.781Z,17.22
2022-09-06T01:13:06.850Z,17.21
2022-09-06T01:13:16.912Z,17.24
2022-09-06T01:13:26.981Z,17.22
2022-09-06T01:13:37.048Z,17.22
2022-09-06T01:13:47.110Z,17.21
2022-09-06T01:13:57.191Z,17.21
2022-09-06T01:14:07.280Z,17.21
2022-09-06T01:14:17.348Z,17.21
2022-09-06T01:14:27.458Z,17.20
2022-09-06T01:14:37.532Z,17.20
2022-09-06T01:14:47.590Z,17.21
2022-09-06T01:14:57.666Z,17.20
2022-09-06T01:15:07.742Z,17.20
2022-09-06T01:15:17.820Z,17.20
2022-09-06T01:15:27.942Z,17.20
2022-09-06T01:15:38.074Z,17.21
2022-09-06T01:15:48.187Z,17.20
2022-09-06T01:15:58.295Z,17.20
2022-09-06T01:16:08.417Z,17.18
2022-09-06T01:16:18.536Z,17.20
2022-09-06T01:16:28.626Z,17.20
2022-09-06T01:16:38.699Z,17.20
2022-09-06T01:16:48.759Z,17.21
2022-09-06T01:16:58.820Z,17.20
2022-09-06T01:17:08.900Z,17.21
2022-09-06T01:17:18.969Z,17.20
2022-09-06T01:17:29.041Z,17.20
2022-09-06T01:17:39.110Z,17.20
2022-09-06T01:17:49.178Z,17.18
2022-09-06T01:17:59.240Z,17.18
2022-09-06T01:18:09.300Z,17.15
2022-09-06T01:18:19.368Z,17.17
2022-09-06T01:18:29.438Z,17.17
2022-09-06T01:18:39.490Z,17.17
2022-09-06T01:18:49.568Z,17.17
2022-09-06T01:18:59.630Z,17.15
2022-09-06T01:19:09.699Z,17.15
2022-09-06T01:19:19.771Z,17.15
2022-09-06T01:19:29.840Z,17.14
2022-09-06T01:19:39.900Z,17.15
2022-09-06T01:19:49.960Z,17.12
2022-09-06T01:20:00.022Z,17.12
2022-09-06T01:20:10.099Z,17.14
2022-09-06T01:20:20.210Z,17.12
2022-09-06T01:20:30.294Z,17.12
2022-09-06T01:20:40.368Z,17.14
2022-09-06T01:20:50.419Z,17.12
2022-09-06T01:21:00.477Z,17.14
2022-09-06T01:21:10.538Z,17.10
2022-09-06T01:21:20.610Z,17.10
2022-09-06T01:21:30.685Z,17.07
2022-09-06T01:21:40.749Z,17.09
2022-09-06T01:21:50.820Z,17.09
2022-09-06T01:22:00.890Z,17.09
2022-09-06T01:22:10.970Z,17.07
2022-09-06T01:22:21.030Z,17.06
2022-09-06T01:22:31.089Z,17.09
2022-09-06T01:22:41.150Z,17.06
2022-09-06T01:22:51.210Z,17.06
2022-09-06T01:23:01.282Z,17.06
2022-09-06T01:23:11.348Z,17.06
2022-09-06T01:23:21.417Z,17.05
2022-09-06T01:23:31.469Z,17.06
2022-09-06T01:24:18.742Z,17.03
2022-09-06T01:24:28.782Z,17.03
2022-09-06T01:24:38.822Z,17.03
2022-09-06T01:24:48.873Z,17.05
2022-09-06T01:24:58.912Z,17.05
2022-09-06T01:25:08.952Z,17.02
2022-09-06T01:25:19.024Z,17.02
2022-09-06T01:25:29.063Z,17.02
2022-09-06T01:25:39.105Z,17.02
2022-09-06T01:25:49.152Z,17.00
2022-09-06T01:25:59.183Z,17.00
2022-09-06T01:26:09.220Z,17.00
2022-09-06T01:26:19.252Z,17.00
2022-09-06T01:26:29.332Z,16.99
2022-09-06T01:26:39.412Z,17.00
2022-09-06T01:26:49.473Z,16.98
2022-09-06T01:26:59.502Z,16.99
2022-09-06T01:27:09.565Z,16.99
2022-09-06T01:27:19.592Z,16.98
2022-09-06T01:27:29.641Z,16.98
2022-09-06T01:27:39.672Z,16.98
2022-09-06T01:27:49.719Z,16.98
2022-09-06T01:27:59.752Z,16.96
2022-09-06T01:28:09.790Z,16.96
2022-09-06T01:28:19.854Z,16.98
2022-09-06T01:28:29.902Z,16.96
2022-09-06T01:28:39.960Z,16.96
2022-09-06T01:28:50.011Z,16.96
2022-09-06T01:29:00.122Z,16.96
2022-09-06T01:29:10.181Z,16.95
2022-09-06T01:29:20.280Z,16.96
2022-09-06T01:29:30.352Z,16.96
2022-09-06T01:29:40.411Z,16.96
2022-09-06T01:29:50.492Z,16.95
2022-09-06T01:30:00.562Z,16.96
2022-09-06T01:30:10.721Z,16.96
2022-09-06T01:30:20.772Z,16.95
2022-09-06T01:30:30.812Z,16.95
2022-09-06T01:30:40.874Z,16.95
2022-09-06T01:30:50.992Z,16.95
2022-09-06T01:31:01.132Z,16.95
2022-09-06T01:31:11.293Z,16.95
2022-09-06T01:31:21.379Z,16.96
2022-09-06T01:31:31.530Z,16.95
2022-09-06T01:31:41.583Z,16.96
2022-09-06T01:31:51.642Z,16.95
2022-09-06T01:32:01.692Z,16.95
2022-09-06T01:32:11.723Z,16.95
2022-09-06T01:32:21.770Z,16.95
2022-09-06T01:32:31.823Z,16.95
2022-09-06T01:32:41.851Z,16.96
2022-09-06T01:32:51.892Z,16.95
2022-09-06T01:33:01.942Z,16.96
2022-09-06T01:33:11.962Z,16.96
2022-09-06T01:33:22.031Z,16.95
2022-09-06T01:33:32.043Z,16.95
2022-09-06T01:33:42.091Z,16.95
2022-09-06T01:33:52.130Z,16.92
2022-09-06T01:34:02.173Z,16.95
2022-09-06T01:34:12.209Z,16.92
2022-09-06T01:34:22.255Z,16.95
2022-09-06T01:34:32.291Z,16.92
2022-09-06T01:34:42.333Z,16.92
2022-09-06T01:34:52.351Z,16.91
2022-09-06T01:35:02.402Z,16.95
2022-09-06T01:35:12.469Z,16.90
2022-09-06T01:35:22.502Z,16.91
2022-09-06T01:35:32.532Z,16.91
2022-09-06T01:35:42.582Z,16.91
2022-09-06T01:35:52.612Z,16.88
2022-09-06T01:36:02.661Z,16.90
2022-09-06T01:36:12.690Z,16.90
2022-09-06T01:36:22.723Z,16.88
2022-09-06T01:36:32.753Z,16.87
2022-09-06T01:37:06.179Z,16.87
2022-09-06T01:37:09.367Z,16.85
2022-09-06T01:37:10.238Z,16.84
2022-09-06T01:37:15.700Z,16.82
2022-09-06T01:37:25.732Z,16.87
2022-09-06T01:37:35.756Z,16.87
2022-09-06T01:37:45.808Z,16.88
2022-09-06T01:37:55.840Z,16.85
2022-09-06T01:38:05.882Z,16.85
2022-09-06T01:38:15.931Z,16.85
2022-09-06T01:38:26.071Z,16.87
2022-09-06T01:38:36.072Z,16.85
2022-09-06T01:38:46.099Z,16.84
2022-09-06T01:38:56.121Z,16.85
2022-09-06T01:39:06.133Z,16.85
2022-09-06T01:39:16.170Z,16.87
2022-09-06T01:39:26.232Z,16.85
2022-09-06T01:39:36.385Z,16.85
2022-09-06T01:39:46.470Z,16.84
2022-09-06T01:39:56.535Z,16.84
2022-09-06T01:40:06.628Z,16.84
2022-09-06T01:40:16.704Z,16.84
2022-09-06T01:40:26.731Z,16.85
2022-09-06T01:40:36.764Z,16.84
2022-09-06T01:40:46.783Z,16.84
2022-09-06T01:40:56.831Z,16.84
2022-09-06T01:41:06.872Z,16.84
2022-09-06T01:41:16.913Z,16.85
2022-09-06T01:41:26.942Z,16.85
2022-09-06T01:41:36.990Z,16.85
2022-09-06T01:41:47.013Z,16.84
2022-09-06T01:41:57.052Z,16.84
2022-09-06T01:42:07.096Z,16.84
2022-09-06T01:42:17.131Z,16.85
2022-09-06T01:42:27.161Z,16.85
2022-09-06T01:42:37.190Z,16.85
2022-09-06T01:42:47.240Z,16.85
2022-09-06T01:42:57.271Z,16.84
2022-09-06T01:43:10.818Z,16.85
2022-09-06T01:43:17.413Z,16.85
2022-09-06T01:43:27.453Z,16.87
2022-09-06T01:43:37.502Z,16.85
2022-09-06T01:43:47.541Z,16.87
2022-09-06T01:43:57.582Z,16.84
2022-09-06T01:44:07.622Z,16.85
2022-09-06T01:44:17.652Z,16.85
2022-09-06T01:44:27.681Z,16.85
2022-09-06T01:44:37.694Z,16.84
2022-09-06T01:44:47.725Z,16.84
2022-09-06T01:44:57.741Z,16.85
2022-09-06T01:45:07.773Z,16.85
2022-09-06T01:45:17.819Z,16.85
2022-09-06T01:45:27.880Z,16.85
2022-09-06T01:45:37.931Z,16.85
2022-09-06T01:45:48.011Z,16.85
2022-09-06T01:45:58.109Z,16.85
2022-09-06T01:46:08.214Z,16.85
2022-09-06T01:46:18.238Z,16.84
2022-09-06T01:46:28.339Z,16.85
2022-09-06T01:46:38.442Z,16.84
2022-09-06T01:46:48.489Z,16.84
2022-09-06T01:46:58.547Z,16.82
2022-09-06T01:47:08.562Z,16.85
2022-09-06T01:47:18.612Z,16.85
2022-09-06T01:47:28.674Z,16.85
2022-09-06T01:47:38.732Z,16.85
2022-09-06T01:47:48.776Z,16.85
2022-09-06T01:47:58.811Z,16.84
2022-09-06T01:48:08.853Z,16.85
2022-09-06T01:48:18.892Z,16.85
2022-09-06T01:48:28.942Z,16.85
2022-09-06T01:48:38.979Z,16.85
2022-09-06T01:48:48.982Z,16.87
2022-09-06T01:48:58.992Z,16.85
2022-09-06T01:49:08.993Z,16.84
2022-09-06T01:49:19.006Z,16.85
2022-09-06T01:49:29.002Z,16.84
2022-09-06T01:49:39.020Z,16.82
2022-09-06T01:49:49.040Z,16.84
2022-09-06T01:49:59.053Z,16.84
2022-09-06T01:50:09.051Z,16.82
2022-09-06T01:50:19.074Z,16.82
2022-09-06T01:50:29.097Z,16.82
2022-09-06T01:50:39.093Z,16.82
2022-09-06T01:50:49.092Z,16.81
2022-09-06T01:50:59.110Z,16.84
2022-09-06T01:51:09.111Z,16.82
2022-09-06T01:51:19.131Z,16.82
2022-09-06T01:51:29.133Z,16.82
2022-09-06T01:51:39.151Z,16.81
2022-09-06T01:51:49.170Z,16.81
2022-09-06T01:51:59.185Z,16.78
2022-09-06T01:52:09.201Z,16.78
2022-09-06T01:52:19.222Z,16.77
2022-09-06T01:52:29.232Z,16.75
2022-09-06T01:52:39.252Z,16.77
2022-09-06T01:52:49.272Z,16.77
2022-09-06T01:52:59.302Z,16.75
2022-09-06T01:53:09.320Z,16.75
2022-09-06T01:53:19.322Z,16.75
2022-09-06T01:53:29.331Z,16.77
2022-09-06T01:53:39.364Z,16.73
2022-09-06T01:53:49.372Z,16.75
2022-09-06T01:53:59.389Z,16.73
2022-09-06T01:54:09.398Z,16.73
2022-09-06T01:54:19.393Z,16.72
2022-09-06T01:54:29.411Z,16.72
2022-09-06T01:54:39.431Z,16.72
2022-09-06T01:54:49.452Z,16.69
2022-09-06T01:54:59.479Z,16.69
2022-09-06T01:55:09.490Z,16.69
2022-09-06T01:55:19.512Z,16.67
2022-09-06T01:55:29.541Z,16.66
2022-09-06T01:55:39.542Z,16.65
2022-09-06T01:55:49.561Z,16.67
2022-09-06T01:55:59.564Z,16.66
2022-09-06T01:56:09.595Z,16.65
2022-09-06T01:56:19.589Z,16.66
2022-09-06T01:56:29.601Z,16.65
2022-09-06T01:56:39.593Z,16.65
2022-09-06T01:56:49.613Z,16.65
2022-09-06T01:56:59.612Z,16.65
2022-09-06T01:57:09.639Z,16.65
2022-09-06T01:57:19.651Z,16.63
2022-09-06T01:57:29.671Z,16.65
2022-09-06T01:57:39.672Z,16.63
2022-09-06T01:57:49.692Z,16.63
2022-09-06T01:57:59.707Z,16.65
2022-09-06T01:58:09.719Z,16.65
2022-09-06T01:58:19.722Z,16.65
2022-09-06T01:58:29.900Z,16.65
2022-09-06T01:58:39.901Z,16.66
2022-09-06T01:58:49.913Z,16.65
2022-09-06T01:58:59.911Z,16.66
2022-09-06T01:59:09.931Z,16.65
2022-09-06T01:59:19.951Z,16.67
2022-09-06T01:59:29.999Z,16.65
2022-09-06T01:59:40.010Z,16.66
2022-09-06T01:59:50.022Z,16.66
2022-09-06T02:00:00.041Z,16.67
2022-09-06T02:00:10.063Z,16.66
2022-09-06T02:00:20.107Z,16.66
2022-09-06T02:00:30.149Z,16.66
2022-09-06T02:00:40.163Z,16.67
2022-09-06T02:00:50.174Z,16.67
2022-09-06T02:01:00.202Z,16.67
2022-09-06T02:01:10.265Z,16.67
2022-09-06T02:01:20.340Z,16.69
2022-09-06T02:01:30.463Z,16.69
2022-09-06T02:01:40.509Z,16.67
2022-09-06T02:01:50.633Z,16.67
2022-09-06T02:02:00.810Z,16.69
2022-09-06T02:02:10.742Z,16.69
2022-09-06T02:02:20.823Z,16.69
2022-09-06T02:02:30.917Z,16.69
2022-09-06T02:02:41.046Z,16.69
2022-09-06T02:02:51.128Z,16.69
2022-09-06T02:03:01.162Z,16.69
2022-09-06T02:03:11.190Z,16.67
2022-09-06T02:03:21.234Z,16.67
2022-09-06T02:03:31.270Z,16.70
2022-09-06T02:03:41.334Z,16.69
2022-09-06T02:03:51.372Z,16.70
2022-09-06T02:04:01.419Z,16.69
2022-09-06T02:04:11.471Z,16.69
2022-09-06T02:04:21.511Z,16.70
2022-09-06T02:04:31.550Z,16.69
2022-09-06T02:04:41.581Z,16.69
2022-09-06T02:04:51.612Z,16.67
2022-09-06T02:05:01.646Z,16.69
2022-09-06T02:05:11.680Z,16.67
2022-09-06T02:05:21.723Z,16.67
2022-09-06T02:05:31.770Z,16.67
2022-09-06T02:05:41.819Z,16.67
2022-09-06T02:05:51.860Z,16.67
2022-09-06T02:06:02.265Z,16.67
2022-09-06T02:06:11.935Z,16.66
2022-09-06T02:06:21.973Z,16.67
2022-09-06T02:06:32.028Z,16.69
2022-09-06T02:06:42.071Z,16.67
2022-09-06T02:06:52.113Z,16.67
2022-09-06T02:07:02.148Z,16.66
2022-09-06T02:07:12.184Z,16.67
2022-09-06T02:07:22.211Z,16.67
2022-09-06T02:07:32.288Z,16.67
2022-09-06T02:07:42.326Z,16.66
2022-09-06T02:07:52.353Z,16.69
2022-09-06T02:08:02.402Z,16.69
2022-09-06T02:08:12.440Z,16.69
2022-09-06T02:08:22.490Z,16.67
2022-09-06T02:08:32.520Z,16.69
2022-09-06T02:08:42.562Z,16.67
2022-09-06T02:08:52.594Z,16.67
2022-09-06T02:09:02.632Z,16.66
2022-09-06T02:09:12.681Z,16.67
2022-09-06T02:09:22.709Z,16.67
2022-09-06T02:09:32.732Z,16.69
2022-09-06T02:09:42.770Z,16.67
2022-09-06T02:09:52.801Z,16.67
2022-09-06T02:10:02.820Z,16.67
2022-09-06T02:10:12.864Z,16.67